EKCH/CPH METAR and TAF weather

Enter ICAO airport designator
Station Type Date Time Source
EKCH METAR 2019/06/17 12:20 UTC NOAA

EKCH 171220Z AUTO 19009KT 9999 NCD 21/12 Q1021 NOSIG


Station Type Date Time Source
EKCH Decoded METAR 2019/06/17 12:20 UTC NOAA

Koebenhavn / Kastrup, Denmark (EKCH) 55-37N 012-39E 5M
Jun 17, 2019 - 08:20 AM EDT / 2019.06.17 1220 UTC
Wind: from the S (190 degrees) at 10 MPH (9 KT):0
Visibility: greater than 7 mile(s):0
Temperature: 69 F (21 C)
Dew Point: 53 F (12 C)
Relative Humidity: 56%
Pressure (altimeter): 30.15 in. Hg (1021 hPa)
ob: EKCH 171220Z AUTO 19009KT 9999 NCD 21/12 Q1021 NOSIG
cycle: 12

Station Type Date Time Source
EKCH TAF 2019/06/17 12:31 UTC NOAA

TAF EKCH 171104Z 1712/1812 20010KT 9999 SCT040

Example: see airport list